sensor_id;sensor_type;location;lat;lon;timestamp;P1;durP1;ratioP1;P2;durP2;ratioP2
47335;SDS011;33068;51.990;5.926;2022-07-23T00:00:39;2.55;;;1.70;;
47335;SDS011;33068;51.990;5.926;2022-07-23T00:03:07;2.63;;;1.80;;
47335;SDS011;33068;51.990;5.926;2022-07-23T00:05:34;5.05;;;2.28;;
47335;SDS011;33068;51.990;5.926;2022-07-23T00:08:03;3.85;;;2.03;;
47335;SDS011;33068;51.990;5.926;2022-07-23T00:10:30;2.92;;;2.33;;
47335;SDS011;33068;51.990;5.926;2022-07-23T00:13:00;2.20;;;2.00;;
47335;SDS011;33068;51.990;5.926;2022-07-23T00:15:28;4.68;;;2.65;;
47335;SDS011;33068;51.990;5.926;2022-07-23T00:17:55;4.10;;;2.30;;
47335;SDS011;33068;51.990;5.926;2022-07-23T00:20:22;4.18;;;3.00;;
47335;SDS011;33068;51.990;5.926;2022-07-23T00:25:20;2.88;;;2.28;;
47335;SDS011;33068;51.990;5.926;2022-07-23T00:27:49;4.05;;;2.70;;
47335;SDS011;33068;51.990;5.926;2022-07-23T00:32:47;6.45;;;2.38;;
47335;SDS011;33068;51.990;5.926;2022-07-23T00:35:15;4.65;;;2.65;;
47335;SDS011;33068;51.990;5.926;2022-07-23T00:47:38;2.60;;;2.40;;
47335;SDS011;33068;51.990;5.926;2022-07-23T00:50:06;6.05;;;2.47;;
47335;SDS011;33068;51.990;5.926;2022-07-23T00:52:35;4.50;;;2.75;;
47335;SDS011;33068;51.990;5.926;2022-07-23T00:55:04;3.60;;;2.97;;
47335;SDS011;33068;51.990;5.926;2022-07-23T00:57:32;4.85;;;2.60;;
47335;SDS011;33068;51.990;5.926;2022-07-23T01:00:02;3.60;;;2.80;;
47335;SDS011;33068;51.990;5.926;2022-07-23T01:02:29;4.30;;;2.90;;
47335;SDS011;33068;51.990;5.926;2022-07-23T01:04:56;4.03;;;3.22;;
47335;SDS011;33068;51.990;5.926;2022-07-23T01:07:24;5.22;;;3.25;;
47335;SDS011;33068;51.990;5.926;2022-07-23T01:09:51;5.18;;;3.33;;
47335;SDS011;33068;51.990;5.926;2022-07-23T01:12:20;5.45;;;3.20;;
47335;SDS011;33068;51.990;5.926;2022-07-23T01:14:53;6.00;;;2.90;;
47335;SDS011;33068;51.990;5.926;2022-07-23T01:17:22;6.32;;;3.22;;
47335;SDS011;33068;51.990;5.926;2022-07-23T01:19:49;3.03;;;2.83;;
47335;SDS011;33068;51.990;5.926;2022-07-23T01:22:17;3.97;;;3.55;;
47335;SDS011;33068;51.990;5.926;2022-07-23T01:24:47;3.67;;;2.63;;
47335;SDS011;33068;51.990;5.926;2022-07-23T01:27:18;8.20;;;2.90;;
47335;SDS011;33068;51.990;5.926;2022-07-23T01:29:46;7.22;;;3.42;;
47335;SDS011;33068;51.990;5.926;2022-07-23T01:32:17;4.38;;;3.22;;
47335;SDS011;33068;51.990;5.926;2022-07-23T01:34:44;3.67;;;2.28;;
47335;SDS011;33068;51.990;5.926;2022-07-23T01:37:12;3.72;;;3.00;;
47335;SDS011;33068;51.990;5.926;2022-07-23T01:39:39;3.08;;;2.75;;
47335;SDS011;33068;51.990;5.926;2022-07-23T01:42:08;6.13;;;3.42;;
47335;SDS011;33068;51.990;5.926;2022-07-23T01:44:36;3.58;;;2.65;;
47335;SDS011;33068;51.990;5.926;2022-07-23T01:47:04;4.38;;;3.15;;
47335;SDS011;33068;51.990;5.926;2022-07-23T01:49:32;3.95;;;2.95;;
47335;SDS011;33068;51.990;5.926;2022-07-23T01:52:25;3.10;;;2.72;;
47335;SDS011;33068;51.990;5.926;2022-07-23T01:54:52;4.35;;;2.35;;
47335;SDS011;33068;51.990;5.926;2022-07-23T01:57:21;4.20;;;2.85;;
47335;SDS011;33068;51.990;5.926;2022-07-23T01:59:49;3.95;;;2.20;;
47335;SDS011;33068;51.990;5.926;2022-07-23T02:02:18;3.25;;;2.95;;
47335;SDS011;33068;51.990;5.926;2022-07-23T02:04:46;6.18;;;3.17;;
47335;SDS011;33068;51.990;5.926;2022-07-23T02:07:15;5.35;;;2.58;;
47335;SDS011;33068;51.990;5.926;2022-07-23T02:09:42;2.92;;;2.53;;
47335;SDS011;33068;51.990;5.926;2022-07-23T02:12:11;4.50;;;2.75;;
47335;SDS011;33068;51.990;5.926;2022-07-23T02:14:40;5.15;;;3.55;;
47335;SDS011;33068;51.990;5.926;2022-07-23T02:17:07;5.88;;;3.03;;
47335;SDS011;33068;51.990;5.926;2022-07-23T02:19:37;3.25;;;2.95;;
47335;SDS011;33068;51.990;5.926;2022-07-23T02:22:05;3.15;;;2.83;;
47335;SDS011;33068;51.990;5.926;2022-07-23T02:24:32;6.07;;;2.70;;
47335;SDS011;33068;51.990;5.926;2022-07-23T02:27:00;2.88;;;2.53;;
47335;SDS011;33068;51.990;5.926;2022-07-23T02:29:27;2.90;;;2.67;;
47335;SDS011;33068;51.990;5.926;2022-07-23T02:31:56;4.07;;;2.72;;
47335;SDS011;33068;51.990;5.926;2022-07-23T02:34:23;3.47;;;2.75;;
47335;SDS011;33068;51.990;5.926;2022-07-23T02:36:50;3.83;;;3.17;;
47335;SDS011;33068;51.990;5.926;2022-07-23T02:39:17;4.60;;;2.55;;
47335;SDS011;33068;51.990;5.926;2022-07-23T02:41:44;4.10;;;3.67;;
47335;SDS011;33068;51.990;5.926;2022-07-23T02:44:11;5.07;;;3.45;;
47335;SDS011;33068;51.990;5.926;2022-07-23T02:46:41;4.85;;;3.00;;
47335;SDS011;33068;51.990;5.926;2022-07-23T02:49:10;2.70;;;2.42;;
47335;SDS011;33068;51.990;5.926;2022-07-23T02:51:37;4.88;;;2.90;;
47335;SDS011;33068;51.990;5.926;2022-07-23T02:54:06;3.83;;;2.47;;
47335;SDS011;33068;51.990;5.926;2022-07-23T02:56:34;4.32;;;2.92;;
47335;SDS011;33068;51.990;5.926;2022-07-23T02:59:02;7.03;;;2.95;;
47335;SDS011;33068;51.990;5.926;2022-07-23T03:01:30;3.35;;;2.50;;
47335;SDS011;33068;51.990;5.926;2022-07-23T03:03:58;3.20;;;2.42;;
47335;SDS011;33068;51.990;5.926;2022-07-23T03:06:27;3.83;;;2.60;;
47335;SDS011;33068;51.990;5.926;2022-07-23T03:08:54;2.53;;;2.20;;
47335;SDS011;33068;51.990;5.926;2022-07-23T03:11:21;2.38;;;2.17;;
47335;SDS011;33068;51.990;5.926;2022-07-23T03:13:49;2.83;;;2.45;;
47335;SDS011;33068;51.990;5.926;2022-07-23T03:16:16;3.58;;;2.38;;
47335;SDS011;33068;51.990;5.926;2022-07-23T03:18:43;2.20;;;1.98;;
47335;SDS011;33068;51.990;5.926;2022-07-23T03:21:10;4.40;;;2.65;;
47335;SDS011;33068;51.990;5.926;2022-07-23T03:23:39;6.20;;;2.65;;
47335;SDS011;33068;51.990;5.926;2022-07-23T03:26:07;3.85;;;2.58;;
47335;SDS011;33068;51.990;5.926;2022-07-23T03:28:34;3.08;;;2.10;;
47335;SDS011;33068;51.990;5.926;2022-07-23T03:31:04;2.22;;;2.08;;
47335;SDS011;33068;51.990;5.926;2022-07-23T03:33:31;2.42;;;1.90;;
47335;SDS011;33068;51.990;5.926;2022-07-23T03:35:59;2.47;;;2.08;;
47335;SDS011;33068;51.990;5.926;2022-07-23T03:38:29;3.58;;;2.47;;
47335;SDS011;33068;51.990;5.926;2022-07-23T03:40:58;7.43;;;2.17;;
47335;SDS011;33068;51.990;5.926;2022-07-23T03:43:25;3.75;;;2.13;;
47335;SDS011;33068;51.990;5.926;2022-07-23T03:45:52;1.90;;;1.70;;
47335;SDS011;33068;51.990;5.926;2022-07-23T03:48:20;2.65;;;1.40;;
47335;SDS011;33068;51.990;5.926;2022-07-23T03:50:47;1.42;;;1.33;;
47335;SDS011;33068;51.990;5.926;2022-07-23T03:53:14;7.10;;;1.63;;
47335;SDS011;33068;51.990;5.926;2022-07-23T03:55:41;4.40;;;2.10;;
47335;SDS011;33068;51.990;5.926;2022-07-23T03:58:10;2.38;;;1.63;;
47335;SDS011;33068;51.990;5.926;2022-07-23T04:00:37;2.08;;;1.98;;
47335;SDS011;33068;51.990;5.926;2022-07-23T04:03:04;2.95;;;2.00;;
47335;SDS011;33068;51.990;5.926;2022-07-23T04:05:32;5.38;;;2.10;;
47335;SDS011;33068;51.990;5.926;2022-07-23T04:08:05;4.18;;;1.95;;
47335;SDS011;33068;51.990;5.926;2022-07-23T04:10:34;3.97;;;2.55;;
47335;SDS011;33068;51.990;5.926;2022-07-23T04:13:03;2.78;;;1.60;;
47335;SDS011;33068;51.990;5.926;2022-07-23T04:15:32;3.75;;;2.75;;
47335;SDS011;33068;51.990;5.926;2022-07-23T04:18:00;4.15;;;1.80;;
47335;SDS011;33068;51.990;5.926;2022-07-23T04:20:40;6.78;;;2.58;;
47335;SDS011;33068;51.990;5.926;2022-07-23T04:23:09;3.33;;;2.63;;
47335;SDS011;33068;51.990;5.926;2022-07-23T04:25:37;3.97;;;2.20;;
47335;SDS011;33068;51.990;5.926;2022-07-23T04:28:05;2.30;;;2.10;;
47335;SDS011;33068;51.990;5.926;2022-07-23T04:30:33;6.15;;;1.88;;
47335;SDS011;33068;51.990;5.926;2022-07-23T04:33:01;2.75;;;1.48;;
47335;SDS011;33068;51.990;5.926;2022-07-23T04:35:32;2.45;;;1.95;;
47335;SDS011;33068;51.990;5.926;2022-07-23T04:38:10;2.58;;;1.63;;
47335;SDS011;33068;51.990;5.926;2022-07-23T04:40:38;1.92;;;1.83;;
47335;SDS011;33068;51.990;5.926;2022-07-23T04:43:05;3.20;;;1.92;;
47335;SDS011;33068;51.990;5.926;2022-07-23T04:45:39;6.10;;;2.00;;
47335;SDS011;33068;51.990;5.926;2022-07-23T04:48:18;2.67;;;1.60;;
47335;SDS011;33068;51.990;5.926;2022-07-23T04:50:49;4.03;;;1.92;;
47335;SDS011;33068;51.990;5.926;2022-07-23T04:53:21;2.78;;;1.50;;
47335;SDS011;33068;51.990;5.926;2022-07-23T04:55:51;1.92;;;1.38;;
47335;SDS011;33068;51.990;5.926;2022-07-23T04:58:19;3.00;;;1.60;;
47335;SDS011;33068;51.990;5.926;2022-07-23T05:00:47;3.05;;;1.50;;
47335;SDS011;33068;51.990;5.926;2022-07-23T05:03:15;1.77;;;1.42;;
47335;SDS011;33068;51.990;5.926;2022-07-23T05:05:46;1.50;;;1.20;;
47335;SDS011;33068;51.990;5.926;2022-07-23T05:08:16;2.95;;;1.30;;
47335;SDS011;33068;51.990;5.926;2022-07-23T05:10:48;2.05;;;1.17;;
47335;SDS011;33068;51.990;5.926;2022-07-23T05:13:17;2.95;;;1.65;;
47335;SDS011;33068;51.990;5.926;2022-07-23T05:15:45;1.30;;;1.20;;
47335;SDS011;33068;51.990;5.926;2022-07-23T05:18:14;1.95;;;1.23;;
47335;SDS011;33068;51.990;5.926;2022-07-23T05:20:41;1.20;;;0.88;;
47335;SDS011;33068;51.990;5.926;2022-07-23T05:23:12;2.13;;;1.13;;
47335;SDS011;33068;51.990;5.926;2022-07-23T05:25:40;1.27;;;1.10;;
47335;SDS011;33068;51.990;5.926;2022-07-23T05:28:08;2.25;;;0.82;;
47335;SDS011;33068;51.990;5.926;2022-07-23T05:30:35;3.40;;;1.08;;
47335;SDS011;33068;51.990;5.926;2022-07-23T05:33:06;2.97;;;0.90;;
47335;SDS011;33068;51.990;5.926;2022-07-23T05:35:35;1.48;;;0.90;;
47335;SDS011;33068;51.990;5.926;2022-07-23T05:38:25;1.33;;;0.85;;
47335;SDS011;33068;51.990;5.926;2022-07-23T05:40:54;3.25;;;0.98;;
47335;SDS011;33068;51.990;5.926;2022-07-23T05:43:21;2.28;;;1.00;;
47335;SDS011;33068;51.990;5.926;2022-07-23T05:45:48;1.60;;;0.68;;
47335;SDS011;33068;51.990;5.926;2022-07-23T05:48:15;3.47;;;0.70;;
47335;SDS011;33068;51.990;5.926;2022-07-23T05:50:57;2.13;;;0.60;;
47335;SDS011;33068;51.990;5.926;2022-07-23T05:53:30;0.52;;;0.50;;
47335;SDS011;33068;51.990;5.926;2022-07-23T05:56:00;4.30;;;0.75;;
47335;SDS011;33068;51.990;5.926;2022-07-23T05:58:29;1.55;;;0.70;;
47335;SDS011;33068;51.990;5.926;2022-07-23T06:00:56;1.17;;;0.60;;
47335;SDS011;33068;51.990;5.926;2022-07-23T06:03:24;0.68;;;0.60;;
47335;SDS011;33068;51.990;5.926;2022-07-23T06:05:51;0.98;;;0.57;;
47335;SDS011;33068;51.990;5.926;2022-07-23T06:08:21;1.92;;;0.60;;
47335;SDS011;33068;51.990;5.926;2022-07-23T06:10:48;0.85;;;0.80;;
47335;SDS011;33068;51.990;5.926;2022-07-23T06:13:17;4.22;;;0.82;;
47335;SDS011;33068;51.990;5.926;2022-07-23T06:15:45;1.92;;;0.88;;
47335;SDS011;33068;51.990;5.926;2022-07-23T06:18:12;2.03;;;0.90;;
47335;SDS011;33068;51.990;5.926;2022-07-23T06:20:40;2.20;;;1.00;;
47335;SDS011;33068;51.990;5.926;2022-07-23T06:23:10;0.70;;;0.55;;
47335;SDS011;33068;51.990;5.926;2022-07-23T06:25:39;3.22;;;1.10;;
47335;SDS011;33068;51.990;5.926;2022-07-23T06:28:09;3.25;;;0.95;;
47335;SDS011;33068;51.990;5.926;2022-07-23T06:30:36;0.50;;;0.50;;
47335;SDS011;33068;51.990;5.926;2022-07-23T06:33:03;2.50;;;0.80;;
47335;SDS011;33068;51.990;5.926;2022-07-23T06:35:30;1.95;;;1.00;;
47335;SDS011;33068;51.990;5.926;2022-07-23T06:37:59;3.80;;;1.15;;
47335;SDS011;33068;51.990;5.926;2022-07-23T06:40:26;2.03;;;0.90;;
47335;SDS011;33068;51.990;5.926;2022-07-23T06:42:54;1.15;;;0.93;;
47335;SDS011;33068;51.990;5.926;2022-07-23T06:45:24;1.85;;;0.80;;
47335;SDS011;33068;51.990;5.926;2022-07-23T06:47:51;5.93;;;0.70;;
47335;SDS011;33068;51.990;5.926;2022-07-23T06:50:21;1.23;;;0.70;;
47335;SDS011;33068;51.990;5.926;2022-07-23T06:52:48;1.38;;;0.70;;
47335;SDS011;33068;51.990;5.926;2022-07-23T06:55:16;1.83;;;0.63;;
47335;SDS011;33068;51.990;5.926;2022-07-23T06:57:44;1.20;;;0.60;;
47335;SDS011;33068;51.990;5.926;2022-07-23T07:00:23;1.98;;;0.90;;
47335;SDS011;33068;51.990;5.926;2022-07-23T07:02:53;1.70;;;0.63;;
47335;SDS011;33068;51.990;5.926;2022-07-23T07:05:26;4.75;;;2.50;;
47335;SDS011;33068;51.990;5.926;2022-07-23T07:07:53;3.60;;;2.00;;
47335;SDS011;33068;51.990;5.926;2022-07-23T07:10:21;0.80;;;0.80;;
47335;SDS011;33068;51.990;5.926;2022-07-23T07:12:49;1.13;;;0.65;;
47335;SDS011;33068;51.990;5.926;2022-07-23T07:15:16;1.70;;;0.88;;
47335;SDS011;33068;51.990;5.926;2022-07-23T07:17:46;3.65;;;0.60;;
47335;SDS011;33068;51.990;5.926;2022-07-23T07:20:13;2.35;;;0.60;;
47335;SDS011;33068;51.990;5.926;2022-07-23T07:22:43;1.27;;;0.60;;
47335;SDS011;33068;51.990;5.926;2022-07-23T07:25:11;3.90;;;0.77;;
47335;SDS011;33068;51.990;5.926;2022-07-23T07:27:38;2.05;;;0.85;;
47335;SDS011;33068;51.990;5.926;2022-07-23T07:30:09;2.47;;;1.08;;
47335;SDS011;33068;51.990;5.926;2022-07-23T07:32:39;1.48;;;0.52;;
47335;SDS011;33068;51.990;5.926;2022-07-23T07:35:09;2.65;;;0.98;;
47335;SDS011;33068;51.990;5.926;2022-07-23T07:37:38;3.20;;;2.50;;
47335;SDS011;33068;51.990;5.926;2022-07-23T07:40:06;1.75;;;0.93;;
47335;SDS011;33068;51.990;5.926;2022-07-23T07:42:46;1.67;;;0.70;;
47335;SDS011;33068;51.990;5.926;2022-07-23T07:45:15;1.35;;;0.77;;
47335;SDS011;33068;51.990;5.926;2022-07-23T07:47:47;2.42;;;0.55;;
47335;SDS011;33068;51.990;5.926;2022-07-23T07:50:19;1.52;;;0.73;;
47335;SDS011;33068;51.990;5.926;2022-07-23T07:52:47;2.85;;;0.90;;
47335;SDS011;33068;51.990;5.926;2022-07-23T07:55:14;1.70;;;0.43;;
47335;SDS011;33068;51.990;5.926;2022-07-23T07:57:42;1.88;;;0.77;;
47335;SDS011;33068;51.990;5.926;2022-07-23T08:00:10;4.38;;;0.95;;
47335;SDS011;33068;51.990;5.926;2022-07-23T08:02:39;0.70;;;0.50;;
47335;SDS011;33068;51.990;5.926;2022-07-23T08:05:09;1.10;;;0.50;;
47335;SDS011;33068;51.990;5.926;2022-07-23T08:07:41;0.98;;;0.70;;
47335;SDS011;33068;51.990;5.926;2022-07-23T08:10:09;2.05;;;0.50;;
47335;SDS011;33068;51.990;5.926;2022-07-23T08:12:37;0.80;;;0.50;;
47335;SDS011;33068;51.990;5.926;2022-07-23T08:15:06;5.18;;;0.70;;
47335;SDS011;33068;51.990;5.926;2022-07-23T08:17:34;4.65;;;0.60;;
47335;SDS011;33068;51.990;5.926;2022-07-23T08:20:02;1.50;;;0.50;;
47335;SDS011;33068;51.990;5.926;2022-07-23T08:22:48;0.70;;;0.32;;
47335;SDS011;33068;51.990;5.926;2022-07-23T08:25:19;2.40;;;0.50;;
47335;SDS011;33068;51.990;5.926;2022-07-23T08:27:47;3.92;;;0.50;;
47335;SDS011;33068;51.990;5.926;2022-07-23T08:30:15;1.00;;;0.32;;
47335;SDS011;33068;51.990;5.926;2022-07-23T08:32:47;2.55;;;0.60;;
47335;SDS011;33068;51.990;5.926;2022-07-23T08:35:16;0.93;;;0.60;;
47335;SDS011;33068;51.990;5.926;2022-07-23T08:37:43;1.75;;;0.40;;
47335;SDS011;33068;51.990;5.926;2022-07-23T08:40:12;2.08;;;0.63;;
47335;SDS011;33068;51.990;5.926;2022-07-23T08:42:39;1.13;;;0.65;;
47335;SDS011;33068;51.990;5.926;2022-07-23T08:45:09;2.63;;;0.50;;
47335;SDS011;33068;51.990;5.926;2022-07-23T08:47:37;0.35;;;0.35;;
47335;SDS011;33068;51.990;5.926;2022-07-23T08:50:06;2.47;;;0.70;;
47335;SDS011;33068;51.990;5.926;2022-07-23T08:52:34;1.30;;;0.40;;
47335;SDS011;33068;51.990;5.926;2022-07-23T08:55:04;2.60;;;0.60;;
47335;SDS011;33068;51.990;5.926;2022-07-23T08:57:33;0.50;;;0.50;;
47335;SDS011;33068;51.990;5.926;2022-07-23T09:00:02;1.15;;;0.50;;
47335;SDS011;33068;51.990;5.926;2022-07-23T09:02:31;3.42;;;0.50;;
47335;SDS011;33068;51.990;5.926;2022-07-23T09:05:04;3.95;;;0.57;;
47335;SDS011;33068;51.990;5.926;2022-07-23T09:07:32;1.38;;;0.50;;
47335;SDS011;33068;51.990;5.926;2022-07-23T09:10:04;3.15;;;0.70;;
47335;SDS011;33068;51.990;5.926;2022-07-23T09:12:35;4.40;;;1.02;;
47335;SDS011;33068;51.990;5.926;2022-07-23T09:15:06;0.77;;;0.47;;
47335;SDS011;33068;51.990;5.926;2022-07-23T09:17:38;1.85;;;0.50;;
47335;SDS011;33068;51.990;5.926;2022-07-23T09:20:08;0.98;;;0.60;;
47335;SDS011;33068;51.990;5.926;2022-07-23T09:22:39;1.25;;;0.70;;
47335;SDS011;33068;51.990;5.926;2022-07-23T09:25:11;2.22;;;0.55;;
47335;SDS011;33068;51.990;5.926;2022-07-23T09:27:55;2.83;;;0.50;;
47335;SDS011;33068;51.990;5.926;2022-07-23T09:30:24;0.85;;;0.40;;
47335;SDS011;33068;51.990;5.926;2022-07-23T09:33:07;3.45;;;0.50;;
47335;SDS011;33068;51.990;5.926;2022-07-23T09:35:46;1.10;;;0.70;;
47335;SDS011;33068;51.990;5.926;2022-07-23T09:38:16;1.33;;;0.45;;
47335;SDS011;33068;51.990;5.926;2022-07-23T09:40:44;3.60;;;0.50;;
47335;SDS011;33068;51.990;5.926;2022-07-23T09:43:13;0.55;;;0.40;;
47335;SDS011;33068;51.990;5.926;2022-07-23T09:45:53;1.48;;;0.60;;
47335;SDS011;33068;51.990;5.926;2022-07-23T09:48:44;1.15;;;0.60;;
47335;SDS011;33068;51.990;5.926;2022-07-23T09:51:11;1.42;;;0.60;;
47335;SDS011;33068;51.990;5.926;2022-07-23T09:53:40;0.55;;;0.55;;
47335;SDS011;33068;51.990;5.926;2022-07-23T09:56:10;3.45;;;0.60;;
47335;SDS011;33068;51.990;5.926;2022-07-23T09:58:41;2.88;;;0.93;;
47335;SDS011;33068;51.990;5.926;2022-07-23T10:01:14;3.75;;;0.80;;
47335;SDS011;33068;51.990;5.926;2022-07-23T10:03:42;3.40;;;0.50;;
47335;SDS011;33068;51.990;5.926;2022-07-23T10:06:30;1.33;;;0.60;;
47335;SDS011;33068;51.990;5.926;2022-07-23T10:09:17;2.45;;;0.50;;
47335;SDS011;33068;51.990;5.926;2022-07-23T10:12:16;1.33;;;0.50;;
47335;SDS011;33068;51.990;5.926;2022-07-23T10:14:58;1.98;;;0.50;;
47335;SDS011;33068;51.990;5.926;2022-07-23T10:17:26;1.55;;;0.50;;
47335;SDS011;33068;51.990;5.926;2022-07-23T10:19:54;1.35;;;0.50;;
47335;SDS011;33068;51.990;5.926;2022-07-23T10:22:22;2.35;;;0.75;;
47335;SDS011;33068;51.990;5.926;2022-07-23T10:24:58;0.82;;;0.60;;
47335;SDS011;33068;51.990;5.926;2022-07-23T10:27:42;2.28;;;0.60;;
47335;SDS011;33068;51.990;5.926;2022-07-23T10:30:28;1.70;;;0.50;;
47335;SDS011;33068;51.990;5.926;2022-07-23T10:33:12;2.25;;;0.60;;
47335;SDS011;33068;51.990;5.926;2022-07-23T10:35:47;0.90;;;0.70;;
47335;SDS011;33068;51.990;5.926;2022-07-23T10:38:21;0.98;;;0.70;;
47335;SDS011;33068;51.990;5.926;2022-07-23T10:40:55;5.95;;;0.60;;
47335;SDS011;33068;51.990;5.926;2022-07-23T10:43:23;2.65;;;0.47;;
47335;SDS011;33068;51.990;5.926;2022-07-23T10:45:52;3.30;;;0.80;;
47335;SDS011;33068;51.990;5.926;2022-07-23T10:48:21;2.50;;;0.80;;
47335;SDS011;33068;51.990;5.926;2022-07-23T10:51:08;1.90;;;0.90;;
47335;SDS011;33068;51.990;5.926;2022-07-23T10:53:56;0.88;;;0.40;;
47335;SDS011;33068;51.990;5.926;2022-07-23T10:59:29;1.95;;;1.15;;
47335;SDS011;33068;51.990;5.926;2022-07-23T11:04:52;2.00;;;0.68;;
47335;SDS011;33068;51.990;5.926;2022-07-23T11:07:22;0.93;;;0.65;;
47335;SDS011;33068;51.990;5.926;2022-07-23T11:09:49;0.85;;;0.63;;
47335;SDS011;33068;51.990;5.926;2022-07-23T11:12:33;1.35;;;0.60;;
47335;SDS011;33068;51.990;5.926;2022-07-23T11:15:05;2.58;;;1.00;;
47335;SDS011;33068;51.990;5.926;2022-07-23T11:17:36;0.98;;;0.63;;
47335;SDS011;33068;51.990;5.926;2022-07-23T11:20:21;3.80;;;0.77;;
47335;SDS011;33068;51.990;5.926;2022-07-23T11:22:50;0.80;;;0.50;;
47335;SDS011;33068;51.990;5.926;2022-07-23T11:25:29;1.65;;;0.50;;
47335;SDS011;33068;51.990;5.926;2022-07-23T11:28:10;2.58;;;0.77;;
47335;SDS011;33068;51.990;5.926;2022-07-23T11:30:41;0.75;;;0.65;;
47335;SDS011;33068;51.990;5.926;2022-07-23T11:33:18;1.88;;;0.68;;
47335;SDS011;33068;51.990;5.926;2022-07-23T11:35:47;2.45;;;0.90;;
47335;SDS011;33068;51.990;5.926;2022-07-23T11:38:17;0.50;;;0.50;;
47335;SDS011;33068;51.990;5.926;2022-07-23T11:40:46;1.83;;;0.80;;
47335;SDS011;33068;51.990;5.926;2022-07-23T11:43:16;1.15;;;0.70;;
47335;SDS011;33068;51.990;5.926;2022-07-23T11:45:44;0.88;;;0.60;;
47335;SDS011;33068;51.990;5.926;2022-07-23T11:48:18;1.77;;;0.70;;
47335;SDS011;33068;51.990;5.926;2022-07-23T11:50:47;3.10;;;0.88;;
47335;SDS011;33068;51.990;5.926;2022-07-23T11:53:20;0.50;;;0.40;;
47335;SDS011;33068;51.990;5.926;2022-07-23T11:55:48;1.00;;;0.60;;
47335;SDS011;33068;51.990;5.926;2022-07-23T11:58:16;2.00;;;0.60;;
47335;SDS011;33068;51.990;5.926;2022-07-23T12:00:43;1.48;;;0.80;;
47335;SDS011;33068;51.990;5.926;2022-07-23T12:03:11;3.33;;;1.30;;
47335;SDS011;33068;51.990;5.926;2022-07-23T12:05:39;3.90;;;1.50;;
47335;SDS011;33068;51.990;5.926;2022-07-23T12:08:09;0.95;;;0.60;;
47335;SDS011;33068;51.990;5.926;2022-07-23T12:10:37;5.93;;;2.67;;
47335;SDS011;33068;51.990;5.926;2022-07-23T12:13:07;3.75;;;1.30;;
47335;SDS011;33068;51.990;5.926;2022-07-23T12:15:36;2.05;;;0.90;;
47335;SDS011;33068;51.990;5.926;2022-07-23T12:18:05;1.23;;;0.70;;
47335;SDS011;33068;51.990;5.926;2022-07-23T12:20:35;0.85;;;0.70;;
47335;SDS011;33068;51.990;5.926;2022-07-23T12:23:06;3.20;;;1.33;;
47335;SDS011;33068;51.990;5.926;2022-07-23T12:25:35;3.58;;;0.63;;
47335;SDS011;33068;51.990;5.926;2022-07-23T12:28:06;4.13;;;0.93;;
47335;SDS011;33068;51.990;5.926;2022-07-23T12:30:37;7.60;;;1.10;;
47335;SDS011;33068;51.990;5.926;2022-07-23T12:33:05;2.35;;;1.00;;
47335;SDS011;33068;51.990;5.926;2022-07-23T12:35:35;1.80;;;1.30;;
47335;SDS011;33068;51.990;5.926;2022-07-23T12:38:08;2.58;;;1.60;;
47335;SDS011;33068;51.990;5.926;2022-07-23T12:40:40;2.40;;;0.82;;
47335;SDS011;33068;51.990;5.926;2022-07-23T12:43:09;3.45;;;1.20;;
47335;SDS011;33068;51.990;5.926;2022-07-23T12:45:46;0.90;;;0.80;;
47335;SDS011;33068;51.990;5.926;2022-07-23T12:48:16;3.95;;;0.90;;
47335;SDS011;33068;51.990;5.926;2022-07-23T12:50:50;2.33;;;0.80;;
47335;SDS011;33068;51.990;5.926;2022-07-23T12:53:25;2.47;;;0.77;;
47335;SDS011;33068;51.990;5.926;2022-07-23T12:56:02;3.42;;;0.85;;
47335;SDS011;33068;51.990;5.926;2022-07-23T12:58:48;0.60;;;0.60;;
47335;SDS011;33068;51.990;5.926;2022-07-23T13:01:25;2.97;;;0.82;;
47335;SDS011;33068;51.990;5.926;2022-07-23T13:04:00;1.33;;;0.77;;
47335;SDS011;33068;51.990;5.926;2022-07-23T13:06:31;1.77;;;0.95;;
47335;SDS011;33068;51.990;5.926;2022-07-23T13:09:00;1.88;;;1.05;;
47335;SDS011;33068;51.990;5.926;2022-07-23T13:11:28;1.08;;;0.70;;
47335;SDS011;33068;51.990;5.926;2022-07-23T13:13:55;2.50;;;1.02;;
47335;SDS011;33068;51.990;5.926;2022-07-23T13:16:22;3.35;;;1.63;;
47335;SDS011;33068;51.990;5.926;2022-07-23T13:18:50;1.98;;;1.05;;
47335;SDS011;33068;51.990;5.926;2022-07-23T13:21:17;1.70;;;0.60;;
47335;SDS011;33068;51.990;5.926;2022-07-23T13:23:44;1.42;;;0.88;;
47335;SDS011;33068;51.990;5.926;2022-07-23T13:26:13;6.13;;;2.72;;
47335;SDS011;33068;51.990;5.926;2022-07-23T13:28:40;2.65;;;0.90;;
47335;SDS011;33068;51.990;5.926;2022-07-23T13:31:07;1.35;;;1.02;;
47335;SDS011;33068;51.990;5.926;2022-07-23T13:33:35;1.02;;;0.90;;
47335;SDS011;33068;51.990;5.926;2022-07-23T13:36:03;2.83;;;0.85;;
47335;SDS011;33068;51.990;5.926;2022-07-23T13:38:31;5.63;;;0.85;;
47335;SDS011;33068;51.990;5.926;2022-07-23T13:40:59;1.35;;;0.73;;
47335;SDS011;33068;51.990;5.926;2022-07-23T13:43:29;2.03;;;0.90;;
47335;SDS011;33068;51.990;5.926;2022-07-23T13:45:56;2.40;;;1.25;;
47335;SDS011;33068;51.990;5.926;2022-07-23T13:48:24;2.97;;;0.80;;
47335;SDS011;33068;51.990;5.926;2022-07-23T13:50:51;0.88;;;0.60;;
47335;SDS011;33068;51.990;5.926;2022-07-23T13:53:19;1.45;;;0.68;;
47335;SDS011;33068;51.990;5.926;2022-07-23T13:55:49;1.95;;;1.00;;
47335;SDS011;33068;51.990;5.926;2022-07-23T13:58:17;2.92;;;0.93;;
47335;SDS011;33068;51.990;5.926;2022-07-23T14:00:49;1.50;;;0.80;;
47335;SDS011;33068;51.990;5.926;2022-07-23T14:03:19;2.03;;;1.00;;
47335;SDS011;33068;51.990;5.926;2022-07-23T14:05:49;0.82;;;0.73;;
47335;SDS011;33068;51.990;5.926;2022-07-23T14:08:16;1.00;;;0.80;;
47335;SDS011;33068;51.990;5.926;2022-07-23T14:10:45;4.13;;;0.80;;
47335;SDS011;33068;51.990;5.926;2022-07-23T14:13:12;2.65;;;1.38;;
47335;SDS011;33068;51.990;5.926;2022-07-23T14:15:39;2.97;;;0.80;;
47335;SDS011;33068;51.990;5.926;2022-07-23T14:18:10;1.13;;;0.80;;
47335;SDS011;33068;51.990;5.926;2022-07-23T14:20:37;1.95;;;0.80;;
47335;SDS011;33068;51.990;5.926;2022-07-23T14:23:04;2.03;;;0.85;;
47335;SDS011;33068;51.990;5.926;2022-07-23T14:25:31;1.58;;;0.70;;
47335;SDS011;33068;51.990;5.926;2022-07-23T14:27:59;0.98;;;0.70;;
47335;SDS011;33068;51.990;5.926;2022-07-23T14:30:26;0.88;;;0.60;;
47335;SDS011;33068;51.990;5.926;2022-07-23T14:32:53;2.70;;;0.70;;
47335;SDS011;33068;51.990;5.926;2022-07-23T14:35:22;3.08;;;1.02;;
47335;SDS011;33068;51.990;5.926;2022-07-23T14:37:49;2.45;;;0.90;;
47335;SDS011;33068;51.990;5.926;2022-07-23T14:40:17;1.15;;;1.05;;
47335;SDS011;33068;51.990;5.926;2022-07-23T14:42:44;3.88;;;1.10;;
47335;SDS011;33068;51.990;5.926;2022-07-23T14:45:11;1.85;;;1.00;;
47335;SDS011;33068;51.990;5.926;2022-07-23T14:47:38;1.17;;;0.75;;
47335;SDS011;33068;51.990;5.926;2022-07-23T14:50:09;2.83;;;1.10;;
47335;SDS011;33068;51.990;5.926;2022-07-23T14:52:38;2.97;;;1.02;;
47335;SDS011;33068;51.990;5.926;2022-07-23T14:55:08;1.35;;;1.00;;
47335;SDS011;33068;51.990;5.926;2022-07-23T14:57:36;1.45;;;0.88;;
47335;SDS011;33068;51.990;5.926;2022-07-23T15:00:04;0.70;;;0.70;;
47335;SDS011;33068;51.990;5.926;2022-07-23T15:02:32;3.03;;;1.02;;
47335;SDS011;33068;51.990;5.926;2022-07-23T15:05:02;0.80;;;0.80;;
47335;SDS011;33068;51.990;5.926;2022-07-23T15:07:30;1.38;;;0.60;;
47335;SDS011;33068;51.990;5.926;2022-07-23T15:09:59;7.70;;;1.10;;
47335;SDS011;33068;51.990;5.926;2022-07-23T15:12:29;1.50;;;1.13;;
47335;SDS011;33068;51.990;5.926;2022-07-23T15:14:56;1.00;;;1.00;;
47335;SDS011;33068;51.990;5.926;2022-07-23T15:17:24;2.15;;;1.40;;
47335;SDS011;33068;51.990;5.926;2022-07-23T15:19:54;3.30;;;0.95;;
47335;SDS011;33068;51.990;5.926;2022-07-23T15:22:21;0.88;;;0.88;;
47335;SDS011;33068;51.990;5.926;2022-07-23T15:24:48;1.85;;;1.27;;